Time;durP1;ratioP1;P1;durP2;ratioP2;P2;SDS_P1;SDS_P2;PMS_P1;PMS_P2;Temp;Humidity;BMP_temperature;BMP_pressure;BME280_temperature;BME280_humidity;BME280_pressure;Samples;Min_cycle;Max_cycle;Signal;HPM_P1;HPM_P2
2022/07/27 00:02:21;;;;;;;4.70;1.47;;;;;;;;;;5073550;28;20409;-77
2022/07/27 00:04:47;;;;;;;7.90;2.43;;;;;;;;;;5073476;28;20426;-77
2022/07/27 00:07:13;;;;;;;4.40;2.70;;;;;;;;;;5073717;28;20477;-77
2022/07/27 00:09:39;;;;;;;7.50;2.00;;;;;;;;;;5073733;28;20416;-77
2022/07/27 00:12:05;;;;;;;8.80;1.97;;;;;;;;;;5073619;28;20511;-76
2022/07/27 00:14:31;;;;;;;5.50;1.57;;;;;;;;;;5073206;28;20499;-77
2022/07/27 00:16:57;;;;;;;3.97;1.70;;;;;;;;;;5073542;28;20487;-77
2022/07/27 00:19:23;;;;;;;4.17;1.27;;;;;;;;;;5073456;28;20439;-76
2022/07/27 00:21:49;;;;;;;4.33;1.47;;;;;;;;;;5072393;28;20430;-77
2022/07/27 00:24:15;;;;;;;4.70;1.53;;;;;;;;;;5073067;28;20428;-78
2022/07/27 00:26:41;;;;;;;1.83;1.40;;;;;;;;;;5072167;28;20398;-77
2022/07/27 00:29:07;;;;;;;4.83;1.43;;;;;;;;;;5073302;28;20871;-76
2022/07/27 00:31:33;;;;;;;3.83;1.93;;;;;;;;;;5072884;28;20394;-76
2022/07/27 00:33:59;;;;;;;4.90;1.83;;;;;;;;;;5073015;28;20442;-77
2022/07/27 00:36:25;;;;;;;1.83;1.53;;;;;;;;;;5073579;28;20408;-77
2022/07/27 00:38:51;;;;;;;3.07;1.30;;;;;;;;;;5073538;28;20873;-76
2022/07/27 00:41:17;;;;;;;5.50;1.70;;;;;;;;;;5073166;28;20386;-77
2022/07/27 00:43:50;;;;;;;3.17;1.40;;;;;;;;;;5072825;28;20883;-77
2022/07/27 00:46:17;;;;;;;3.80;1.10;;;;;;;;;;5073390;28;20408;-77
2022/07/27 00:48:42;;;;;;;4.73;1.80;;;;;;;;;;5073249;28;20802;-77
2022/07/27 00:51:09;;;;;;;6.03;1.60;;;;;;;;;;5071937;28;20617;-77
2022/07/27 00:53:35;;;;;;;4.70;2.17;;;;;;;;;;5072589;28;20873;-77
2022/07/27 00:56:01;;;;;;;6.60;1.60;;;;;;;;;;5073306;28;20937;-77
2022/07/27 00:58:27;;;;;;;6.10;1.30;;;;;;;;;;5073392;28;20406;-77
2022/07/27 01:00:52;;;;;;;8.37;1.63;;;;;;;;;;5073002;28;20821;-77
2022/07/27 01:03:18;;;;;;;2.60;1.47;;;;;;;;;;5072912;28;20407;-77
2022/07/27 01:05:45;;;;;;;5.00;1.50;;;;;;;;;;5072960;28;20443;-76
2022/07/27 01:08:12;;;;;;;3.80;1.60;;;;;;;;;;5072037;28;20892;-76
2022/07/27 01:10:39;;;;;;;3.47;1.30;;;;;;;;;;5073048;28;20459;-77
2022/07/27 01:13:05;;;;;;;3.13;1.50;;;;;;;;;;5072668;28;20529;-77
2022/07/27 01:15:31;;;;;;;2.50;1.50;;;;;;;;;;5072872;28;20423;-78
2022/07/27 01:17:57;;;;;;;6.40;1.63;;;;;;;;;;5072841;28;20498;-77
2022/07/27 01:20:23;;;;;;;4.20;1.43;;;;;;;;;;5072856;28;20390;-77
2022/07/27 01:22:49;;;;;;;2.57;1.10;;;;;;;;;;5072464;28;20412;-77
2022/07/27 01:25:15;;;;;;;5.57;1.83;;;;;;;;;;5072954;28;20386;-77
2022/07/27 01:27:41;;;;;;;3.00;1.43;;;;;;;;;;5071533;28;20506;-77
2022/07/27 01:30:26;;;;;;;2.80;1.20;;;;;;;;;;5072831;28;20498;-76
2022/07/27 01:32:59;;;;;;;2.90;1.33;;;;;;;;;;5072592;28;20514;-76
2022/07/27 01:35:25;;;;;;;2.00;1.33;;;;;;;;;;5072969;28;20415;-77
2022/07/27 01:37:51;;;;;;;1.63;1.53;;;;;;;;;;5072723;28;20383;-77
2022/07/27 01:40:17;;;;;;;4.90;1.40;;;;;;;;;;5072747;28;20444;-76
2022/07/27 01:42:43;;;;;;;2.07;1.20;;;;;;;;;;5072313;28;20411;-76
2022/07/27 01:45:09;;;;;;;4.60;1.80;;;;;;;;;;5075481;28;20408;-77
2022/07/27 01:47:35;;;;;;;8.33;2.40;;;;;;;;;;5076728;28;20393;-77
2022/07/27 01:50:01;;;;;;;3.50;1.20;;;;;;;;;;5076268;28;20450;-76
2022/07/27 01:52:27;;;;;;;3.83;1.30;;;;;;;;;;5076429;28;20527;-77
2022/07/27 01:54:53;;;;;;;2.47;1.30;;;;;;;;;;5076586;28;20436;-77
2022/07/27 01:57:19;;;;;;;4.70;1.60;;;;;;;;;;5076411;28;20554;-77
2022/07/27 01:59:45;;;;;;;4.07;2.03;;;;;;;;;;5076353;28;20408;-78
2022/07/27 02:02:14;;;;;;;5.47;1.70;;;;;;;;;;5076041;28;20780;-77
2022/07/27 02:04:40;;;;;;;4.63;1.23;;;;;;;;;;5075579;28;20426;-77
2022/07/27 02:07:06;;;;;;;2.17;1.40;;;;;;;;;;5076172;28;20414;-76
2022/07/27 02:09:32;;;;;;;4.63;1.83;;;;;;;;;;5074809;28;20415;-76
2022/07/27 02:14:43;;;;;;;4.23;1.67;;;;;;;;;;5076196;28;20484;-77
2022/07/27 02:17:09;;;;;;;2.33;1.10;;;;;;;;;;5075866;28;20404;-77
2022/07/27 02:19:35;;;;;;;3.50;1.37;;;;;;;;;;5074512;28;20426;-77
2022/07/27 02:22:01;;;;;;;5.03;1.47;;;;;;;;;;5075395;28;20400;-77
2022/07/27 02:24:27;;;;;;;3.17;1.20;;;;;;;;;;5075417;28;20438;-77
2022/07/27 02:26:53;;;;;;;2.00;1.30;;;;;;;;;;5075635;28;20416;-76
2022/07/27 02:29:19;;;;;;;3.53;1.40;;;;;;;;;;5075751;28;20412;-77
2022/07/27 02:31:45;;;;;;;3.13;1.73;;;;;;;;;;5075658;28;20386;-77
2022/07/27 02:34:11;;;;;;;3.57;1.40;;;;;;;;;;5074985;28;20962;-78
2022/07/27 02:36:37;;;;;;;4.07;1.70;;;;;;;;;;5075502;28;20842;-76
2022/07/27 02:39:03;;;;;;;4.70;2.00;;;;;;;;;;5075548;28;20404;-77
2022/07/27 02:41:29;;;;;;;5.03;1.67;;;;;;;;;;5074473;28;20395;-77
2022/07/27 02:43:56;;;;;;;2.90;1.30;;;;;;;;;;5075469;28;20747;-77
2022/07/27 02:46:22;;;;;;;4.00;1.63;;;;;;;;;;5075212;28;20391;-77
2022/07/27 02:48:48;;;;;;;5.20;2.30;;;;;;;;;;5075335;28;20416;-77
2022/07/27 02:51:14;;;;;;;1.60;1.43;;;;;;;;;;5075972;28;20408;-76
2022/07/27 02:53:40;;;;;;;4.90;1.90;;;;;;;;;;5075368;28;20888;-76
2022/07/27 02:56:06;;;;;;;4.30;1.60;;;;;;;;;;5074667;28;20386;-77
2022/07/27 02:58:33;;;;;;;4.07;1.50;;;;;;;;;;5075107;28;20405;-77
2022/07/27 03:00:59;;;;;;;3.30;1.57;;;;;;;;;;5075373;28;20760;-76
2022/07/27 03:03:25;;;;;;;8.43;1.87;;;;;;;;;;5074873;28;20816;-77
2022/07/27 03:05:51;;;;;;;8.00;1.80;;;;;;;;;;5074899;28;20434;-76
2022/07/27 03:08:17;;;;;;;3.10;1.67;;;;;;;;;;5075030;28;20415;-76
2022/07/27 03:10:43;;;;;;;3.60;1.60;;;;;;;;;;5074950;28;20441;-77
2022/07/27 03:13:09;;;;;;;3.63;1.50;;;;;;;;;;5074358;28;20482;-76
2022/07/27 03:15:35;;;;;;;6.03;2.07;;;;;;;;;;5074845;28;20899;-76
2022/07/27 03:18:01;;;;;;;4.93;2.40;;;;;;;;;;5074777;28;20465;-77
2022/07/27 03:20:27;;;;;;;7.80;2.00;;;;;;;;;;5073117;28;20517;-77
2022/07/27 03:22:54;;;;;;;3.47;1.90;;;;;;;;;;5074273;28;20530;-77
2022/07/27 03:25:20;;;;;;;11.27;1.97;;;;;;;;;;5074609;28;20444;-76
2022/07/27 03:27:46;;;;;;;4.97;1.60;;;;;;;;;;5074469;28;20422;-76
2022/07/27 03:30:12;;;;;;;7.33;2.00;;;;;;;;;;5074553;28;20777;-76
2022/07/27 03:32:38;;;;;;;2.63;1.33;;;;;;;;;;5073767;28;20470;-77
2022/07/27 03:35:04;;;;;;;3.90;1.47;;;;;;;;;;5074383;28;20416;-77
2022/07/27 03:37:30;;;;;;;4.23;2.00;;;;;;;;;;5074573;28;20412;-77
2022/07/27 03:39:56;;;;;;;4.63;1.90;;;;;;;;;;5074284;28;20960;-76
2022/07/27 03:42:22;;;;;;;2.20;1.57;;;;;;;;;;5075106;28;20403;-76
2022/07/27 03:44:48;;;;;;;3.67;1.80;;;;;;;;;;5074263;28;20803;-76
2022/07/27 03:47:14;;;;;;;4.40;1.77;;;;;;;;;;5074304;28;20404;-77
2022/07/27 03:49:41;;;;;;;5.33;1.50;;;;;;;;;;5074366;28;20816;-76
2022/07/27 03:52:07;;;;;;;12.70;2.00;;;;;;;;;;5074157;28;20412;-76
2022/07/27 03:54:33;;;;;;;3.00;1.80;;;;;;;;;;5073780;28;20477;-77
2022/07/27 03:56:59;;;;;;;4.80;1.93;;;;;;;;;;5074379;28;20417;-76
2022/07/27 03:59:24;;;;;;;5.93;2.03;;;;;;;;;;5074324;28;20434;-76
2022/07/27 04:01:50;;;;;;;3.00;1.90;;;;;;;;;;5073937;28;20415;-76
2022/07/27 04:04:16;;;;;;;4.80;1.90;;;;;;;;;;5073347;28;20567;-76
2022/07/27 04:06:42;;;;;;;3.53;1.90;;;;;;;;;;5073152;28;20424;-76
2022/07/27 04:09:08;;;;;;;8.83;2.30;;;;;;;;;;5073817;28;20904;-77
2022/07/27 04:11:34;;;;;;;4.33;2.30;;;;;;;;;;5073926;28;21112;-76
2022/07/27 04:14:00;;;;;;;3.73;2.10;;;;;;;;;;5073303;28;20478;-76
2022/07/27 04:16:26;;;;;;;3.47;2.10;;;;;;;;;;5073614;28;20410;-76
2022/07/27 04:18:52;;;;;;;3.97;2.00;;;;;;;;;;5073236;28;20949;-77
2022/07/27 04:21:18;;;;;;;4.50;1.70;;;;;;;;;;5073491;28;20495;-76
2022/07/27 04:23:44;;;;;;;5.60;1.97;;;;;;;;;;5073073;28;20432;-76
2022/07/27 04:26:10;;;;;;;7.43;1.83;;;;;;;;;;5073408;28;20437;-77
2022/07/27 04:28:36;;;;;;;12.10;2.57;;;;;;;;;;5073242;28;20418;-77
2022/07/27 04:31:02;;;;;;;10.23;2.67;;;;;;;;;;5073306;28;20559;-76
2022/07/27 04:33:28;;;;;;;7.73;2.50;;;;;;;;;;5073057;28;20514;-76
2022/07/27 04:35:55;;;;;;;10.67;3.23;;;;;;;;;;5073395;28;20480;-76
2022/07/27 04:38:21;;;;;;;9.70;2.90;;;;;;;;;;5073358;28;20405;-76
2022/07/27 04:40:47;;;;;;;4.30;2.47;;;;;;;;;;5073243;28;20406;-76
2022/07/27 04:43:12;;;;;;;7.73;3.13;;;;;;;;;;5072980;28;20428;-76
2022/07/27 04:45:38;;;;;;;4.07;2.73;;;;;;;;;;5073511;28;20421;-76
2022/07/27 04:48:09;;;;;;;8.13;3.13;;;;;;;;;;5073298;28;20908;-76
2022/07/27 04:50:42;;;;;;;4.27;2.80;;;;;;;;;;5075037;28;20421;-76
2022/07/27 04:53:09;;;;;;;7.40;3.43;;;;;;;;;;5072423;28;20508;-76
2022/07/27 04:55:35;;;;;;;6.90;3.70;;;;;;;;;;5073234;28;20487;-76
2022/07/27 04:58:01;;;;;;;5.37;2.53;;;;;;;;;;5073107;28;20501;-76
2022/07/27 05:00:27;;;;;;;5.87;3.30;;;;;;;;;;5073161;28;20427;-76
2022/07/27 05:02:53;;;;;;;7.33;3.30;;;;;;;;;;5072589;28;20926;-76
2022/07/27 05:05:19;;;;;;;4.40;3.53;;;;;;;;;;5072874;28;20410;-76
2022/07/27 05:07:46;;;;;;;3.33;2.60;;;;;;;;;;5073058;28;20424;-76
2022/07/27 05:10:12;;;;;;;7.83;3.20;;;;;;;;;;5073102;28;20440;-76
2022/07/27 05:12:38;;;;;;;10.83;3.00;;;;;;;;;;5072574;28;20451;-76
2022/07/27 05:15:04;;;;;;;4.53;2.90;;;;;;;;;;5071774;28;20418;-75
2022/07/27 05:17:30;;;;;;;9.30;3.10;;;;;;;;;;5072864;28;20908;-76
2022/07/27 05:19:56;;;;;;;5.07;2.50;;;;;;;;;;5076877;28;20408;-76
2022/07/27 05:22:22;;;;;;;6.37;3.50;;;;;;;;;;5075306;28;20408;-76
2022/07/27 05:24:48;;;;;;;6.70;2.97;;;;;;;;;;5076718;28;20434;-76
2022/07/27 05:27:14;;;;;;;5.43;3.37;;;;;;;;;;5075887;28;20508;-75
2022/07/27 05:29:40;;;;;;;6.00;3.40;;;;;;;;;;5076532;28;20416;-75
2022/07/27 05:32:06;;;;;;;10.40;3.43;;;;;;;;;;5076740;28;20415;-76
2022/07/27 05:34:32;;;;;;;6.40;3.10;;;;;;;;;;5076255;28;20457;-76
2022/07/27 05:36:59;;;;;;;5.40;3.00;;;;;;;;;;5076951;28;20417;-76
2022/07/27 05:39:25;;;;;;;6.13;2.77;;;;;;;;;;5076604;28;20907;-75
2022/07/27 05:41:51;;;;;;;10.80;3.30;;;;;;;;;;5076582;28;20379;-75
2022/07/27 05:44:17;;;;;;;8.50;3.13;;;;;;;;;;5076753;28;20473;-75
2022/07/27 05:46:43;;;;;;;3.70;3.00;;;;;;;;;;5076454;28;20443;-75
2022/07/27 05:49:09;;;;;;;7.30;2.90;;;;;;;;;;5076496;28;20446;-76
2022/07/27 05:51:35;;;;;;;3.67;2.60;;;;;;;;;;5076043;28;20506;-76
2022/07/27 05:54:01;;;;;;;5.77;3.40;;;;;;;;;;5075709;28;20949;-76
2022/07/27 05:56:28;;;;;;;7.50;2.90;;;;;;;;;;5076351;28;20487;-76
2022/07/27 05:58:53;;;;;;;7.27;3.03;;;;;;;;;;5077007;28;20412;-76
2022/07/27 06:01:19;;;;;;;6.20;3.40;;;;;;;;;;5076228;28;20397;-76
2022/07/27 06:03:45;;;;;;;6.23;3.57;;;;;;;;;;5075627;28;20411;-76
2022/07/27 06:08:56;;;;;;;7.83;2.70;;;;;;;;;;5076059;28;20403;-76
2022/07/27 06:11:22;;;;;;;14.97;3.40;;;;;;;;;;5075884;28;20908;-76
2022/07/27 06:13:49;;;;;;;5.07;2.73;;;;;;;;;;5075302;28;20477;-76
2022/07/27 06:16:15;;;;;;;6.43;3.17;;;;;;;;;;5076026;28;20721;-76
2022/07/27 06:18:41;;;;;;;5.47;2.53;;;;;;;;;;5075824;28;20406;-76
2022/07/27 06:21:07;;;;;;;9.80;2.23;;;;;;;;;;5075749;28;20400;-76
2022/07/27 06:23:33;;;;;;;4.60;2.17;;;;;;;;;;5075413;28;20474;-76
2022/07/27 06:25:59;;;;;;;3.07;1.67;;;;;;;;;;5075455;28;20436;-77
2022/07/27 06:28:25;;;;;;;3.23;2.17;;;;;;;;;;5075639;28;20408;-76
2022/07/27 06:30:52;;;;;;;3.73;2.30;;;;;;;;;;5074640;28;20386;-76
2022/07/27 06:33:26;;;;;;;4.70;1.97;;;;;;;;;;5075277;28;20816;-76
2022/07/27 06:35:53;;;;;;;6.10;1.63;;;;;;;;;;5077437;28;20414;-76
2022/07/27 06:38:18;;;;;;;6.30;2.07;;;;;;;;;;5075411;28;20468;-76
2022/07/27 06:40:46;;;;;;;4.80;2.00;;;;;;;;;;5075392;28;20408;-76
2022/07/27 06:43:12;;;;;;;3.53;1.30;;;;;;;;;;5075175;28;20413;-76
2022/07/27 06:45:38;;;;;;;2.80;1.43;;;;;;;;;;5075350;28;20867;-76
2022/07/27 06:48:04;;;;;;;5.20;2.13;;;;;;;;;;5075608;28;20504;-76
2022/07/27 06:50:30;;;;;;;2.90;1.30;;;;;;;;;;5075196;28;20386;-76
2022/07/27 06:52:56;;;;;;;2.70;1.87;;;;;;;;;;5074936;28;20506;-76
2022/07/27 06:55:22;;;;;;;9.60;4.03;;;;;;;;;;5075013;28;20408;-76
2022/07/27 06:57:48;;;;;;;4.80;2.50;;;;;;;;;;5075492;28;20461;-74
2022/07/27 07:00:15;;;;;;;6.10;2.50;;;;;;;;;;5074990;28;20404;-75
2022/07/27 07:02:55;;;;;;;4.53;1.90;;;;;;;;;;5074761;28;20887;-75
2022/07/27 07:05:22;;;;;;;7.23;2.53;;;;;;;;;;5074938;28;20931;-74
2022/07/27 07:07:48;;;;;;;3.67;2.80;;;;;;;;;;5074926;28;20412;-74
2022/07/27 07:10:14;;;;;;;6.60;4.33;;;;;;;;;;5074850;28;20382;-75
2022/07/27 07:12:40;;;;;;;9.87;3.53;;;;;;;;;;5074622;28;20763;-75
2022/07/27 07:15:07;;;;;;;6.73;2.70;;;;;;;;;;5074998;28;20400;-75
2022/07/27 07:17:33;;;;;;;6.67;2.90;;;;;;;;;;5074689;28;20394;-75
2022/07/27 07:19:59;;;;;;;6.40;3.10;;;;;;;;;;5074674;28;20510;-75
2022/07/27 07:22:25;;;;;;;3.07;2.50;;;;;;;;;;5074177;28;20386;-76
2022/07/27 07:24:51;;;;;;;6.83;2.47;;;;;;;;;;5074415;28;20431;-75
2022/07/27 07:27:22;;;;;;;11.53;3.50;;;;;;;;;;5074517;28;20776;-76
2022/07/27 07:29:48;;;;;;;4.10;2.37;;;;;;;;;;5074604;28;20430;-75
2022/07/27 07:32:15;;;;;;;7.73;3.40;;;;;;;;;;5074346;28;20387;-75
2022/07/27 07:34:41;;;;;;;7.40;2.00;;;;;;;;;;5074239;28;20882;-75
2022/07/27 07:37:07;;;;;;;7.10;2.70;;;;;;;;;;5074580;28;20435;-75
2022/07/27 07:39:33;;;;;;;5.27;2.30;;;;;;;;;;5074557;28;20490;-75
2022/07/27 07:41:59;;;;;;;4.57;2.27;;;;;;;;;;5074386;28;20888;-75
2022/07/27 07:44:25;;;;;;;6.80;2.60;;;;;;;;;;5073972;28;20409;-75
2022/07/27 07:46:51;;;;;;;3.63;1.90;;;;;;;;;;5073865;28;20390;-77
2022/07/27 07:49:17;;;;;;;11.43;3.07;;;;;;;;;;5074130;28;20396;-79
2022/07/27 07:51:43;;;;;;;3.60;2.27;;;;;;;;;;5074142;28;20481;-78
2022/07/27 07:54:10;;;;;;;7.20;2.80;;;;;;;;;;5072274;28;20481;-77
2022/07/27 07:56:36;;;;;;;8.77;2.67;;;;;;;;;;5073945;28;20412;-77
2022/07/27 07:59:03;;;;;;;4.77;2.73;;;;;;;;;;5072667;28;20420;-78
2022/07/27 08:01:29;;;;;;;5.83;2.10;;;;;;;;;;5073816;28;20386;-78
2022/07/27 08:03:55;;;;;;;4.00;2.20;;;;;;;;;;5073338;28;20432;-79
2022/07/27 08:06:21;;;;;;;5.50;1.57;;;;;;;;;;5074100;28;20391;-79
2022/07/27 08:08:51;;;;;;;3.67;1.70;;;;;;;;;;5072638;28;20457;-80
2022/07/27 08:11:16;;;;;;;5.03;1.90;;;;;;;;;;5074119;28;20420;-77
2022/07/27 08:13:42;;;;;;;7.37;2.00;;;;;;;;;;5073290;28;20596;-78
2022/07/27 08:16:08;;;;;;;9.73;2.20;;;;;;;;;;5072402;28;20451;-78
2022/07/27 08:18:34;;;;;;;7.50;2.07;;;;;;;;;;5073507;28;20483;-77
2022/07/27 08:21:00;;;;;;;5.70;1.47;;;;;;;;;;5072262;28;20420;-78
2022/07/27 08:23:27;;;;;;;5.23;1.40;;;;;;;;;;5073340;28;20884;-77
2022/07/27 08:25:53;;;;;;;3.60;1.63;;;;;;;;;;5073570;28;20408;-79
2022/07/27 08:28:19;;;;;;;2.40;1.60;;;;;;;;;;5073352;28;20425;-80
2022/07/27 08:30:45;;;;;;;4.10;1.73;;;;;;;;;;5072090;28;20476;-80
2022/07/27 08:33:11;;;;;;;5.47;1.90;;;;;;;;;;5071645;28;20474;-80
2022/07/27 08:35:37;;;;;;;6.33;2.60;;;;;;;;;;5073443;28;20405;-80
2022/07/27 08:38:05;;;;;;;9.97;2.40;;;;;;;;;;5059082;28;20451;-80
2022/07/27 08:40:31;;;;;;;2.87;2.17;;;;;;;;;;5053434;28;20412;-80
2022/07/27 08:43:00;;;;;;;5.93;1.73;;;;;;;;;;5052896;28;20848;-80
2022/07/27 08:45:26;;;;;;;4.60;2.00;;;;;;;;;;5053250;28;20478;-81
2022/07/27 08:47:52;;;;;;;8.90;2.00;;;;;;;;;;5053230;28;20776;-80
2022/07/27 08:50:22;;;;;;;7.60;2.50;;;;;;;;;;5051965;28;20947;-79
2022/07/27 08:52:53;;;;;;;6.63;2.90;;;;;;;;;;5052257;28;20420;-80
2022/07/27 08:55:20;;;;;;;5.63;2.10;;;;;;;;;;5052339;28;20420;-80
2022/07/27 08:57:46;;;;;;;7.23;2.30;;;;;;;;;;5053502;28;20426;-80
2022/07/27 09:00:12;;;;;;;4.60;1.80;;;;;;;;;;5052196;28;20400;-78
2022/07/27 09:02:39;;;;;;;7.23;1.50;;;;;;;;;;5057529;28;20416;-77
2022/07/27 09:05:06;;;;;;;3.63;1.50;;;;;;;;;;5069078;28;20915;-79
2022/07/27 09:07:32;;;;;;;2.40;1.10;;;;;;;;;;5073192;28;20467;-78
2022/07/27 09:09:58;;;;;;;8.97;1.80;;;;;;;;;;5073125;28;20442;-78
2022/07/27 09:12:27;;;;;;;3.90;1.80;;;;;;;;;;5072824;28;20763;-79
2022/07/27 09:15:03;;;;;;;2.93;1.47;;;;;;;;;;5072872;28;20520;-78
2022/07/27 09:17:29;;;;;;;4.40;1.87;;;;;;;;;;5071780;28;20390;-78
2022/07/27 09:20:00;;;;;;;3.80;2.40;;;;;;;;;;5073041;28;20422;-78
2022/07/27 09:22:41;;;;;;;6.00;2.53;;;;;;;;;;5071353;28;20445;-79
2022/07/27 09:25:09;;;;;;;4.50;2.33;;;;;;;;;;5072801;28;20406;-79
2022/07/27 09:27:35;;;;;;;3.03;1.90;;;;;;;;;;5072808;28;20445;-78
2022/07/27 09:30:02;;;;;;;6.30;1.60;;;;;;;;;;5072790;28;20498;-78
2022/07/27 09:32:29;;;;;;;2.53;2.03;;;;;;;;;;5071312;28;20426;-79
2022/07/27 09:34:55;;;;;;;4.70;1.73;;;;;;;;;;5072425;28;20463;-78
2022/07/27 09:37:25;;;;;;;5.40;1.73;;;;;;;;;;5071394;28;20733;-79
2022/07/27 09:40:09;;;;;;;4.20;2.20;;;;;;;;;;5071463;28;20473;-79
2022/07/27 09:42:35;;;;;;;4.07;1.87;;;;;;;;;;5072242;28;20400;-79
2022/07/27 09:45:01;;;;;;;4.87;1.83;;;;;;;;;;5072789;28;20400;-78
2022/07/27 09:47:28;;;;;;;4.10;1.97;;;;;;;;;;5072716;28;20418;-78
2022/07/27 09:49:55;;;;;;;4.80;2.20;;;;;;;;;;5072808;28;20926;-79
2022/07/27 09:52:26;;;;;;;5.13;1.87;;;;;;;;;;5070871;28;20430;-79
2022/07/27 09:54:52;;;;;;;2.80;2.10;;;;;;;;;;5072369;28;20617;-79
2022/07/27 09:57:19;;;;;;;4.70;1.70;;;;;;;;;;5071356;28;20447;-79
2022/07/27 09:59:45;;;;;;;4.60;1.90;;;;;;;;;;5071129;28;20487;-78
2022/07/27 10:02:12;;;;;;;6.87;2.17;;;;;;;;;;5072578;28;20490;-78
2022/07/27 10:04:39;;;;;;;1.87;1.20;;;;;;;;;;5072513;28;20788;-79
2022/07/27 10:07:05;;;;;;;4.63;1.67;;;;;;;;;;5076665;28;20425;-79
2022/07/27 10:09:31;;;;;;;3.50;1.33;;;;;;;;;;5076175;28;20411;-79
2022/07/27 10:11:57;;;;;;;3.23;1.43;;;;;;;;;;5076069;28;20942;-78
2022/07/27 10:14:24;;;;;;;3.80;1.70;;;;;;;;;;5075715;28;20813;-78
2022/07/27 10:16:52;;;;;;;5.10;1.87;;;;;;;;;;5076502;28;20453;-78
2022/07/27 10:19:23;;;;;;;3.57;1.67;;;;;;;;;;5076018;28;20404;-78
2022/07/27 10:21:49;;;;;;;6.60;2.17;;;;;;;;;;5075816;28;20454;-78
2022/07/27 10:24:33;;;;;;;4.43;2.53;;;;;;;;;;5075474;28;20439;-78
2022/07/27 10:27:16;;;;;;;3.17;1.80;;;;;;;;;;5071258;28;20449;-79
2022/07/27 10:29:42;;;;;;;4.43;2.00;;;;;;;;;;5055512;28;20416;-78
2022/07/27 10:32:08;;;;;;;5.53;2.57;;;;;;;;;;5055765;28;20424;-78
2022/07/27 10:34:36;;;;;;;4.60;2.87;;;;;;;;;;5055200;28;20464;-78
2022/07/27 10:37:15;;;;;;;6.67;2.97;;;;;;;;;;5055482;28;20936;-78
2022/07/27 10:39:45;;;;;;;3.00;2.70;;;;;;;;;;5055072;28;20420;-79
2022/07/27 10:42:17;;;;;;;4.77;2.67;;;;;;;;;;5057215;28;20415;-78
2022/07/27 10:45:10;;;;;;;5.30;2.77;;;;;;;;;;5055417;28;20441;-77
2022/07/27 10:47:46;;;;;;;9.23;3.37;;;;;;;;;;5052713;28;20777;-78
2022/07/27 10:50:15;;;;;;;3.97;3.63;;;;;;;;;;5055413;28;20497;-78
2022/07/27 10:52:49;;;;;;;6.03;2.53;;;;;;;;;;5054893;28;20417;-78
2022/07/27 10:55:30;;;;;;;3.20;2.77;;;;;;;;;;5055409;28;20405;-77
2022/07/27 10:58:04;;;;;;;6.33;2.90;;;;;;;;;;5055426;28;20413;-77
2022/07/27 11:00:48;;;;;;;3.83;2.40;;;;;;;;;;5053734;28;20420;-77
2022/07/27 11:03:34;;;;;;;6.13;3.03;;;;;;;;;;5054727;28;20493;-78
2022/07/27 11:06:01;;;;;;;5.27;2.70;;;;;;;;;;5053681;28;20429;-76
2022/07/27 11:08:28;;;;;;;6.20;3.00;;;;;;;;;;5055175;28;20986;-78
2022/07/27 11:10:55;;;;;;;2.47;2.27;;;;;;;;;;5055043;28;20469;-79
2022/07/27 11:13:21;;;;;;;10.13;2.80;;;;;;;;;;5054439;28;20468;-78
2022/07/27 11:15:52;;;;;;;5.37;2.67;;;;;;;;;;5054296;28;20412;-79
2022/07/27 11:18:24;;;;;;;4.47;2.23;;;;;;;;;;5054678;28;20404;-79
2022/07/27 11:20:50;;;;;;;8.27;2.47;;;;;;;;;;5054124;28;20551;-78
2022/07/27 11:23:20;;;;;;;2.50;1.93;;;;;;;;;;5056090;28;20468;-79
2022/07/27 11:25:58;;;;;;;2.13;1.93;;;;;;;;;;5054644;28;20453;-79
2022/07/27 11:28:29;;;;;;;6.17;2.63;;;;;;;;;;5055053;28;20554;-78
2022/07/27 11:30:56;;;;;;;9.97;2.10;;;;;;;;;;5056678;28;20491;-78
2022/07/27 11:33:22;;;;;;;3.23;2.07;;;;;;;;;;5057271;28;20460;-78
2022/07/27 11:35:53;;;;;;;2.60;1.87;;;;;;;;;;5056810;28;20407;-77
2022/07/27 11:38:19;;;;;;;5.60;2.13;;;;;;;;;;5055249;28;20415;-78
2022/07/27 11:40:46;;;;;;;4.93;2.00;;;;;;;;;;5055955;28;20904;-76
2022/07/27 11:43:12;;;;;;;4.03;1.70;;;;;;;;;;5054607;28;20508;-78
2022/07/27 11:45:41;;;;;;;5.27;2.10;;;;;;;;;;5056374;28;20829;-78
2022/07/27 11:48:11;;;;;;;4.53;1.83;;;;;;;;;;5054418;28;20429;-78
2022/07/27 11:50:55;;;;;;;1.97;1.60;;;;;;;;;;5037902;28;20447;-77
2022/07/27 11:53:21;;;;;;;3.10;1.50;;;;;;;;;;5055606;28;20467;-76
2022/07/27 11:55:48;;;;;;;2.33;1.67;;;;;;;;;;5055398;28;20953;-77
2022/07/27 11:58:17;;;;;;;6.73;1.87;;;;;;;;;;5054411;28;20404;-75
2022/07/27 12:00:43;;;;;;;4.30;1.10;;;;;;;;;;5054680;28;20436;-76
2022/07/27 12:03:19;;;;;;;3.90;1.53;;;;;;;;;;5052996;28;20444;-76
2022/07/27 12:05:55;;;;;;;3.40;1.37;;;;;;;;;;5054169;28;20527;-76
2022/07/27 12:08:22;;;;;;;3.30;1.30;;;;;;;;;;5055832;28;20747;-78
2022/07/27 12:10:58;;;;;;;3.07;1.27;;;;;;;;;;5039464;28;20859;-78
2022/07/27 12:13:34;;;;;;;2.33;1.40;;;;;;;;;;5056082;28;20510;-78
2022/07/27 12:16:00;;;;;;;3.20;1.50;;;;;;;;;;5057177;28;20758;-77
2022/07/27 12:18:26;;;;;;;2.23;1.13;;;;;;;;;;5055737;28;20892;-77
2022/07/27 12:20:52;;;;;;;2.40;1.20;;;;;;;;;;5056274;28;20424;-78
2022/07/27 12:23:18;;;;;;;2.10;1.17;;;;;;;;;;5056482;28;20967;-77
2022/07/27 12:25:45;;;;;;;4.60;1.30;;;;;;;;;;5056824;28;20435;-78
2022/07/27 12:28:13;;;;;;;3.80;1.13;;;;;;;;;;5054531;28;20447;-78
2022/07/27 12:30:43;;;;;;;4.07;1.33;;;;;;;;;;5055534;28;20425;-76
2022/07/27 12:33:28;;;;;;;1.90;0.90;;;;;;;;;;5053698;28;20471;-76
2022/07/27 12:35:54;;;;;;;1.40;1.00;;;;;;;;;;5052313;28;20780;-77
2022/07/27 12:38:20;;;;;;;2.23;1.00;;;;;;;;;;5053413;28;20455;-77
2022/07/27 12:40:47;;;;;;;1.10;0.80;;;;;;;;;;5053336;28;20814;-77
2022/07/27 12:43:17;;;;;;;3.07;1.20;;;;;;;;;;5053637;28;20904;-76
2022/07/27 12:45:43;;;;;;;2.20;0.90;;;;;;;;;;5054392;28;20416;-78
2022/07/27 12:48:11;;;;;;;4.40;1.03;;;;;;;;;;5053659;28;20870;-78
2022/07/27 12:50:37;;;;;;;1.73;1.03;;;;;;;;;;5052199;28;20774;-78
2022/07/27 12:53:04;;;;;;;2.43;1.20;;;;;;;;;;5053082;28;20460;-76
2022/07/27 12:55:30;;;;;;;5.83;1.80;;;;;;;;;;5053524;28;20409;-76
2022/07/27 12:57:56;;;;;;;2.70;1.50;;;;;;;;;;5053453;28;20485;-78
2022/07/27 13:00:23;;;;;;;3.17;1.03;;;;;;;;;;5053826;28;20814;-78
2022/07/27 13:02:49;;;;;;;1.70;1.20;;;;;;;;;;5053223;28;20463;-78
2022/07/27 13:05:16;;;;;;;1.30;1.20;;;;;;;;;;5053163;28;20428;-78
2022/07/27 13:07:46;;;;;;;2.23;1.17;;;;;;;;;;5053900;28;20883;-77
2022/07/27 13:10:13;;;;;;;3.67;1.00;;;;;;;;;;5052555;28;20420;-78
2022/07/27 13:12:39;;;;;;;1.33;1.00;;;;;;;;;;5053405;28;20400;-77
2022/07/27 13:15:06;;;;;;;2.73;1.17;;;;;;;;;;5053393;28;20417;-78
2022/07/27 13:17:32;;;;;;;2.97;1.00;;;;;;;;;;5053321;28;20424;-78
2022/07/27 13:19:58;;;;;;;1.00;0.70;;;;;;;;;;5052278;28;20458;-78
2022/07/27 13:22:24;;;;;;;2.17;1.10;;;;;;;;;;5051539;28;20921;-78
2022/07/27 13:24:50;;;;;;;5.10;0.97;;;;;;;;;;5052641;28;20432;-77
2022/07/27 13:27:16;;;;;;;3.03;1.40;;;;;;;;;;5053061;28;20506;-77
2022/07/27 13:29:42;;;;;;;1.57;0.80;;;;;;;;;;5053000;28;20421;-78
2022/07/27 13:32:08;;;;;;;1.50;1.00;;;;;;;;;;5052729;28;20420;-78
2022/07/27 13:34:34;;;;;;;2.30;1.20;;;;;;;;;;5051296;28;20472;-79
2022/07/27 13:37:00;;;;;;;1.90;1.23;;;;;;;;;;5052799;28;20769;-79
2022/07/27 13:39:26;;;;;;;4.30;1.30;;;;;;;;;;5053029;28;20419;-78
2022/07/27 13:41:53;;;;;;;4.30;1.63;;;;;;;;;;5056578;28;20467;-79
2022/07/27 13:44:20;;;;;;;1.47;1.10;;;;;;;;;;5056489;28;20486;-78
2022/07/27 13:46:46;;;;;;;3.27;1.23;;;;;;;;;;5057081;28;20404;-77
2022/07/27 13:49:13;;;;;;;4.27;1.40;;;;;;;;;;5056528;28;20928;-78
2022/07/27 13:51:39;;;;;;;3.17;1.47;;;;;;;;;;5056645;28;20413;-78
2022/07/27 13:54:05;;;;;;;5.07;1.50;;;;;;;;;;5055184;28;20549;-78
2022/07/27 13:56:33;;;;;;;2.40;1.07;;;;;;;;;;5056811;28;20491;-78
2022/07/27 13:58:59;;;;;;;2.20;1.30;;;;;;;;;;5056632;28;20495;-78
2022/07/27 14:01:25;;;;;;;4.40;1.20;;;;;;;;;;5055420;28;20515;-77
2022/07/27 14:03:51;;;;;;;2.17;1.10;;;;;;;;;;5054733;28;20791;-78
2022/07/27 14:06:17;;;;;;;2.17;1.17;;;;;;;;;;5056492;28;20455;-78
2022/07/27 14:08:44;;;;;;;2.20;1.00;;;;;;;;;;5055208;28;20413;-77
2022/07/27 14:11:10;;;;;;;3.17;1.63;;;;;;;;;;5056261;28;20416;-78
2022/07/27 14:13:36;;;;;;;4.47;1.37;;;;;;;;;;5054700;28;20494;-78
2022/07/27 14:16:02;;;;;;;3.17;1.70;;;;;;;;;;5056708;28;20413;-78
2022/07/27 14:18:31;;;;;;;2.70;1.10;;;;;;;;;;5055188;28;20850;-77
2022/07/27 14:20:58;;;;;;;3.10;1.10;;;;;;;;;;5054896;28;20968;-77
2022/07/27 14:23:24;;;;;;;5.37;1.13;;;;;;;;;;5055914;28;20795;-77
2022/07/27 14:25:51;;;;;;;2.70;1.00;;;;;;;;;;5054827;28;20425;-77
2022/07/27 14:28:17;;;;;;;1.63;1.17;;;;;;;;;;5055999;28;20752;-78
2022/07/27 14:30:43;;;;;;;2.97;1.27;;;;;;;;;;5055956;28;20432;-78
2022/07/27 14:33:10;;;;;;;2.23;1.20;;;;;;;;;;5055418;28;20559;-78
2022/07/27 14:35:36;;;;;;;11.33;1.33;;;;;;;;;;5054411;28;20420;-78
2022/07/27 14:38:02;;;;;;;3.30;1.40;;;;;;;;;;5055844;28;20474;-76
2022/07/27 14:40:28;;;;;;;4.50;1.10;;;;;;;;;;5055471;28;20425;-78
2022/07/27 14:42:54;;;;;;;2.40;1.13;;;;;;;;;;5055157;28;20515;-77
2022/07/27 14:45:20;;;;;;;4.50;1.23;;;;;;;;;;5252585;22;20598;-77
2022/07/27 14:47:46;;;;;;;2.20;0.90;;;;;;;;;;5049192;28;20408;-74
2022/07/27 14:50:13;;;;;;;5.97;1.30;;;;;;;;;;5053659;28;20916;-74